sensor_id;sensor_type;location;lat;lon;timestamp;P1;durP1;ratioP1;P2;durP2;ratioP2
20725;SDS011;10524;48.132;8.518;2022-10-31T00:01:14;10.35;;;5.82;;
20725;SDS011;10524;48.132;8.518;2022-10-31T00:03:45;6.68;;;4.95;;
20725;SDS011;10524;48.132;8.518;2022-10-31T00:06:11;11.68;;;5.63;;
20725;SDS011;10524;48.132;8.518;2022-10-31T00:08:36;13.80;;;5.97;;
20725;SDS011;10524;48.132;8.518;2022-10-31T00:11:02;9.65;;;5.75;;
20725;SDS011;10524;48.132;8.518;2022-10-31T00:13:28;10.05;;;4.97;;
20725;SDS011;10524;48.132;8.518;2022-10-31T00:15:54;8.38;;;4.85;;
20725;SDS011;10524;48.132;8.518;2022-10-31T00:18:19;9.98;;;5.10;;
20725;SDS011;10524;48.132;8.518;2022-10-31T00:20:45;10.65;;;4.85;;
20725;SDS011;10524;48.132;8.518;2022-10-31T00:23:11;9.02;;;4.60;;
20725;SDS011;10524;48.132;8.518;2022-10-31T00:25:37;8.48;;;5.22;;
20725;SDS011;10524;48.132;8.518;2022-10-31T00:28:04;6.70;;;4.60;;
20725;SDS011;10524;48.132;8.518;2022-10-31T00:30:32;8.10;;;5.20;;
20725;SDS011;10524;48.132;8.518;2022-10-31T00:32:58;7.72;;;4.57;;
20725;SDS011;10524;48.132;8.518;2022-10-31T00:35:24;10.00;;;4.90;;
20725;SDS011;10524;48.132;8.518;2022-10-31T00:37:49;9.98;;;4.40;;
20725;SDS011;10524;48.132;8.518;2022-10-31T00:40:16;7.80;;;4.43;;
20725;SDS011;10524;48.132;8.518;2022-10-31T00:42:42;7.97;;;4.25;;
20725;SDS011;10524;48.132;8.518;2022-10-31T00:45:08;9.38;;;4.35;;
20725;SDS011;10524;48.132;8.518;2022-10-31T00:47:34;7.50;;;4.75;;
20725;SDS011;10524;48.132;8.518;2022-10-31T00:50:00;6.80;;;4.50;;
20725;SDS011;10524;48.132;8.518;2022-10-31T00:52:26;8.27;;;4.50;;
20725;SDS011;10524;48.132;8.518;2022-10-31T00:54:51;7.85;;;4.63;;
20725;SDS011;10524;48.132;8.518;2022-10-31T00:57:17;8.93;;;4.68;;
20725;SDS011;10524;48.132;8.518;2022-10-31T00:59:42;8.77;;;4.45;;
20725;SDS011;10524;48.132;8.518;2022-10-31T01:02:08;10.30;;;4.43;;
20725;SDS011;10524;48.132;8.518;2022-10-31T01:04:34;8.48;;;4.03;;
20725;SDS011;10524;48.132;8.518;2022-10-31T01:06:59;6.65;;;3.95;;
20725;SDS011;10524;48.132;8.518;2022-10-31T01:09:25;10.65;;;4.50;;
20725;SDS011;10524;48.132;8.518;2022-10-31T01:11:51;7.50;;;4.45;;
20725;SDS011;10524;48.132;8.518;2022-10-31T01:14:16;7.43;;;4.25;;
20725;SDS011;10524;48.132;8.518;2022-10-31T01:16:42;10.25;;;4.80;;
20725;SDS011;10524;48.132;8.518;2022-10-31T01:19:08;8.75;;;4.43;;
20725;SDS011;10524;48.132;8.518;2022-10-31T01:21:33;8.48;;;4.50;;
20725;SDS011;10524;48.132;8.518;2022-10-31T01:23:59;8.80;;;4.65;;
20725;SDS011;10524;48.132;8.518;2022-10-31T01:26:27;10.35;;;4.45;;
20725;SDS011;10524;48.132;8.518;2022-10-31T01:29:01;7.88;;;4.75;;
20725;SDS011;10524;48.132;8.518;2022-10-31T01:31:33;8.00;;;4.20;;
20725;SDS011;10524;48.132;8.518;2022-10-31T01:34:00;7.45;;;4.35;;
20725;SDS011;10524;48.132;8.518;2022-10-31T01:38:52;9.73;;;4.32;;
20725;SDS011;10524;48.132;8.518;2022-10-31T01:41:21;9.38;;;4.32;;
20725;SDS011;10524;48.132;8.518;2022-10-31T01:43:52;7.82;;;4.10;;
20725;SDS011;10524;48.132;8.518;2022-10-31T01:46:20;7.28;;;4.22;;
20725;SDS011;10524;48.132;8.518;2022-10-31T01:48:54;8.23;;;4.00;;
20725;SDS011;10524;48.132;8.518;2022-10-31T01:51:23;12.05;;;4.93;;
20725;SDS011;10524;48.132;8.518;2022-10-31T01:53:54;8.63;;;4.53;;
20725;SDS011;10524;48.132;8.518;2022-10-31T01:56:23;13.13;;;5.40;;
20725;SDS011;10524;48.132;8.518;2022-10-31T01:58:50;8.95;;;4.95;;
20725;SDS011;10524;48.132;8.518;2022-10-31T02:01:17;7.65;;;4.53;;
20725;SDS011;10524;48.132;8.518;2022-10-31T02:03:43;12.45;;;5.05;;
20725;SDS011;10524;48.132;8.518;2022-10-31T02:06:13;8.75;;;4.53;;
20725;SDS011;10524;48.132;8.518;2022-10-31T02:08:50;9.82;;;5.00;;
20725;SDS011;10524;48.132;8.518;2022-10-31T02:11:17;6.68;;;4.25;;
20725;SDS011;10524;48.132;8.518;2022-10-31T02:13:43;9.07;;;4.70;;
20725;SDS011;10524;48.132;8.518;2022-10-31T02:16:09;10.35;;;5.13;;
20725;SDS011;10524;48.132;8.518;2022-10-31T02:18:35;9.77;;;5.03;;
20725;SDS011;10524;48.132;8.518;2022-10-31T02:21:03;6.95;;;4.45;;
20725;SDS011;10524;48.132;8.518;2022-10-31T02:36:58;9.15;;;4.18;;
20725;SDS011;10524;48.132;8.518;2022-10-31T02:39:35;8.45;;;4.35;;
20725;SDS011;10524;48.132;8.518;2022-10-31T02:42:42;6.43;;;3.88;;
20725;SDS011;10524;48.132;8.518;2022-10-31T02:45:19;6.70;;;4.03;;
20725;SDS011;10524;48.132;8.518;2022-10-31T02:47:50;9.82;;;5.68;;
20725;SDS011;10524;48.132;8.518;2022-10-31T02:50:22;9.18;;;4.47;;
20725;SDS011;10524;48.132;8.518;2022-10-31T02:52:57;9.82;;;4.70;;
20725;SDS011;10524;48.132;8.518;2022-10-31T02:57:56;8.63;;;4.40;;
20725;SDS011;10524;48.132;8.518;2022-10-31T03:00:45;10.20;;;4.57;;
20725;SDS011;10524;48.132;8.518;2022-10-31T03:14:24;10.52;;;4.78;;
20725;SDS011;10524;48.132;8.518;2022-10-31T03:16:59;7.10;;;4.28;;
20725;SDS011;10524;48.132;8.518;2022-10-31T03:19:49;9.05;;;4.03;;
20725;SDS011;10524;48.132;8.518;2022-10-31T03:24:42;11.05;;;4.47;;
20725;SDS011;10524;48.132;8.518;2022-10-31T03:27:09;9.32;;;4.43;;
20725;SDS011;10524;48.132;8.518;2022-10-31T03:29:38;9.68;;;4.60;;
20725;SDS011;10524;48.132;8.518;2022-10-31T03:32:08;9.02;;;4.45;;
20725;SDS011;10524;48.132;8.518;2022-10-31T03:34:38;7.55;;;4.30;;
20725;SDS011;10524;48.132;8.518;2022-10-31T03:37:06;7.38;;;3.97;;
20725;SDS011;10524;48.132;8.518;2022-10-31T03:39:35;8.25;;;4.40;;
20725;SDS011;10524;48.132;8.518;2022-10-31T03:44:56;10.15;;;4.22;;
20725;SDS011;10524;48.132;8.518;2022-10-31T03:47:28;9.93;;;4.72;;
20725;SDS011;10524;48.132;8.518;2022-10-31T03:49:54;5.50;;;4.18;;
20725;SDS011;10524;48.132;8.518;2022-10-31T03:52:33;7.07;;;4.50;;
20725;SDS011;10524;48.132;8.518;2022-10-31T03:55:09;8.27;;;4.20;;
20725;SDS011;10524;48.132;8.518;2022-10-31T04:00:27;7.88;;;3.70;;
20725;SDS011;10524;48.132;8.518;2022-10-31T04:03:00;7.90;;;4.28;;
20725;SDS011;10524;48.132;8.518;2022-10-31T04:05:34;8.60;;;3.97;;
20725;SDS011;10524;48.132;8.518;2022-10-31T04:08:02;8.60;;;4.75;;
20725;SDS011;10524;48.132;8.518;2022-10-31T04:10:32;9.30;;;4.68;;
20725;SDS011;10524;48.132;8.518;2022-10-31T04:13:04;6.85;;;4.28;;
20725;SDS011;10524;48.132;8.518;2022-10-31T04:15:37;6.15;;;3.67;;
20725;SDS011;10524;48.132;8.518;2022-10-31T04:18:04;7.97;;;4.10;;
20725;SDS011;10524;48.132;8.518;2022-10-31T04:20:31;7.95;;;4.15;;
20725;SDS011;10524;48.132;8.518;2022-10-31T04:23:02;7.22;;;3.60;;
20725;SDS011;10524;48.132;8.518;2022-10-31T04:25:28;7.55;;;4.03;;
20725;SDS011;10524;48.132;8.518;2022-10-31T04:27:54;7.93;;;4.18;;
20725;SDS011;10524;48.132;8.518;2022-10-31T04:30:20;9.65;;;4.63;;
20725;SDS011;10524;48.132;8.518;2022-10-31T04:32:46;8.73;;;4.00;;
20725;SDS011;10524;48.132;8.518;2022-10-31T04:35:11;10.60;;;4.50;;
20725;SDS011;10524;48.132;8.518;2022-10-31T04:37:37;6.90;;;4.03;;
20725;SDS011;10524;48.132;8.518;2022-10-31T04:40:03;7.15;;;4.68;;
20725;SDS011;10524;48.132;8.518;2022-10-31T04:42:29;6.97;;;4.03;;
20725;SDS011;10524;48.132;8.518;2022-10-31T04:44:55;6.57;;;4.35;;
20725;SDS011;10524;48.132;8.518;2022-10-31T04:47:21;6.00;;;3.63;;
20725;SDS011;10524;48.132;8.518;2022-10-31T04:49:47;7.55;;;3.80;;
20725;SDS011;10524;48.132;8.518;2022-10-31T04:52:13;6.88;;;4.47;;
20725;SDS011;10524;48.132;8.518;2022-10-31T04:54:38;6.70;;;4.20;;
20725;SDS011;10524;48.132;8.518;2022-10-31T04:57:04;6.00;;;3.88;;
20725;SDS011;10524;48.132;8.518;2022-10-31T04:59:30;6.82;;;4.32;;
20725;SDS011;10524;48.132;8.518;2022-10-31T05:01:56;6.63;;;4.13;;
20725;SDS011;10524;48.132;8.518;2022-10-31T05:04:21;12.75;;;4.63;;
20725;SDS011;10524;48.132;8.518;2022-10-31T05:06:47;8.07;;;4.50;;
20725;SDS011;10524;48.132;8.518;2022-10-31T05:09:13;8.70;;;4.55;;
20725;SDS011;10524;48.132;8.518;2022-10-31T05:11:38;8.70;;;4.75;;
20725;SDS011;10524;48.132;8.518;2022-10-31T05:14:04;6.97;;;4.82;;
20725;SDS011;10524;48.132;8.518;2022-10-31T05:16:30;10.20;;;4.30;;
20725;SDS011;10524;48.132;8.518;2022-10-31T05:18:56;10.23;;;4.90;;
20725;SDS011;10524;48.132;8.518;2022-10-31T05:21:21;9.80;;;4.97;;
20725;SDS011;10524;48.132;8.518;2022-10-31T05:23:47;6.88;;;4.55;;
20725;SDS011;10524;48.132;8.518;2022-10-31T05:26:13;7.72;;;5.00;;
20725;SDS011;10524;48.132;8.518;2022-10-31T05:28:38;9.35;;;5.15;;
20725;SDS011;10524;48.132;8.518;2022-10-31T05:31:04;8.95;;;5.22;;
20725;SDS011;10524;48.132;8.518;2022-10-31T05:33:30;8.20;;;4.57;;
20725;SDS011;10524;48.132;8.518;2022-10-31T05:35:55;11.75;;;4.10;;
20725;SDS011;10524;48.132;8.518;2022-10-31T05:38:21;7.47;;;4.28;;
20725;SDS011;10524;48.132;8.518;2022-10-31T05:40:47;11.15;;;5.32;;
20725;SDS011;10524;48.132;8.518;2022-10-31T05:43:12;6.22;;;4.40;;
20725;SDS011;10524;48.132;8.518;2022-10-31T05:45:38;9.65;;;5.20;;
20725;SDS011;10524;48.132;8.518;2022-10-31T05:48:04;9.25;;;5.18;;
20725;SDS011;10524;48.132;8.518;2022-10-31T05:50:30;7.57;;;4.78;;
20725;SDS011;10524;48.132;8.518;2022-10-31T05:52:57;11.07;;;5.78;;
20725;SDS011;10524;48.132;8.518;2022-10-31T05:55:28;9.55;;;5.53;;
20725;SDS011;10524;48.132;8.518;2022-10-31T05:57:55;7.88;;;4.90;;
20725;SDS011;10524;48.132;8.518;2022-10-31T06:00:21;11.13;;;4.82;;
20725;SDS011;10524;48.132;8.518;2022-10-31T06:02:47;9.38;;;5.22;;
20725;SDS011;10524;48.132;8.518;2022-10-31T06:05:13;10.15;;;6.22;;
20725;SDS011;10524;48.132;8.518;2022-10-31T06:07:39;11.77;;;6.30;;
20725;SDS011;10524;48.132;8.518;2022-10-31T06:10:05;11.00;;;5.50;;
20725;SDS011;10524;48.132;8.518;2022-10-31T06:12:32;11.15;;;5.35;;
20725;SDS011;10524;48.132;8.518;2022-10-31T06:15:02;13.63;;;6.75;;
20725;SDS011;10524;48.132;8.518;2022-10-31T06:17:30;13.80;;;6.82;;
20725;SDS011;10524;48.132;8.518;2022-10-31T06:19:55;11.63;;;6.10;;
20725;SDS011;10524;48.132;8.518;2022-10-31T06:22:21;11.38;;;6.05;;
20725;SDS011;10524;48.132;8.518;2022-10-31T06:24:47;7.15;;;5.18;;
20725;SDS011;10524;48.132;8.518;2022-10-31T06:27:12;11.43;;;5.75;;
20725;SDS011;10524;48.132;8.518;2022-10-31T06:29:38;10.45;;;5.20;;
20725;SDS011;10524;48.132;8.518;2022-10-31T06:32:04;8.25;;;4.68;;
20725;SDS011;10524;48.132;8.518;2022-10-31T06:34:30;13.00;;;5.57;;
20725;SDS011;10524;48.132;8.518;2022-10-31T06:36:55;11.02;;;6.63;;
20725;SDS011;10524;48.132;8.518;2022-10-31T06:39:21;10.50;;;6.15;;
20725;SDS011;10524;48.132;8.518;2022-10-31T06:41:47;17.15;;;8.45;;
20725;SDS011;10524;48.132;8.518;2022-10-31T06:44:13;19.55;;;8.15;;
20725;SDS011;10524;48.132;8.518;2022-10-31T06:46:39;15.77;;;8.23;;
20725;SDS011;10524;48.132;8.518;2022-10-31T06:49:04;12.60;;;6.90;;
20725;SDS011;10524;48.132;8.518;2022-10-31T06:51:30;12.52;;;6.20;;
20725;SDS011;10524;48.132;8.518;2022-10-31T06:53:55;10.05;;;5.72;;
20725;SDS011;10524;48.132;8.518;2022-10-31T06:56:21;11.80;;;5.72;;
20725;SDS011;10524;48.132;8.518;2022-10-31T06:58:47;13.07;;;5.53;;
20725;SDS011;10524;48.132;8.518;2022-10-31T07:01:12;10.25;;;5.45;;
20725;SDS011;10524;48.132;8.518;2022-10-31T07:03:38;13.15;;;5.80;;
20725;SDS011;10524;48.132;8.518;2022-10-31T07:06:04;11.00;;;5.75;;
20725;SDS011;10524;48.132;8.518;2022-10-31T07:08:30;9.82;;;5.15;;
20725;SDS011;10524;48.132;8.518;2022-10-31T07:10:56;9.10;;;5.93;;
20725;SDS011;10524;48.132;8.518;2022-10-31T07:13:23;19.17;;;11.98;;
20725;SDS011;10524;48.132;8.518;2022-10-31T07:15:52;23.50;;;17.73;;
20725;SDS011;10524;48.132;8.518;2022-10-31T07:18:19;18.17;;;12.50;;
20725;SDS011;10524;48.132;8.518;2022-10-31T07:20:45;10.55;;;7.10;;
20725;SDS011;10524;48.132;8.518;2022-10-31T07:23:12;10.57;;;4.85;;
20725;SDS011;10524;48.132;8.518;2022-10-31T07:25:38;7.78;;;3.60;;
20725;SDS011;10524;48.132;8.518;2022-10-31T07:28:04;8.05;;;3.65;;
20725;SDS011;10524;48.132;8.518;2022-10-31T07:30:32;6.93;;;3.60;;
20725;SDS011;10524;48.132;8.518;2022-10-31T07:32:58;6.00;;;3.47;;
20725;SDS011;10524;48.132;8.518;2022-10-31T07:35:24;4.95;;;3.30;;
20725;SDS011;10524;48.132;8.518;2022-10-31T07:37:53;7.53;;;3.85;;
20725;SDS011;10524;48.132;8.518;2022-10-31T07:40:19;8.02;;;5.43;;
20725;SDS011;10524;48.132;8.518;2022-10-31T07:42:47;7.68;;;5.60;;
20725;SDS011;10524;48.132;8.518;2022-10-31T07:45:15;8.45;;;5.40;;
20725;SDS011;10524;48.132;8.518;2022-10-31T07:47:45;9.68;;;5.93;;
20725;SDS011;10524;48.132;8.518;2022-10-31T07:50:22;8.63;;;5.88;;
20725;SDS011;10524;48.132;8.518;2022-10-31T07:53:06;17.90;;;12.40;;
20725;SDS011;10524;48.132;8.518;2022-10-31T07:55:33;19.17;;;12.93;;
20725;SDS011;10524;48.132;8.518;2022-10-31T07:58:03;18.50;;;11.02;;
20725;SDS011;10524;48.132;8.518;2022-10-31T08:00:34;17.80;;;11.80;;
20725;SDS011;10524;48.132;8.518;2022-10-31T08:03:01;10.85;;;6.75;;
20725;SDS011;10524;48.132;8.518;2022-10-31T08:05:34;8.90;;;5.38;;
20725;SDS011;10524;48.132;8.518;2022-10-31T08:08:01;11.90;;;6.13;;
20725;SDS011;10524;48.132;8.518;2022-10-31T08:10:27;10.57;;;5.55;;
20725;SDS011;10524;48.132;8.518;2022-10-31T08:15:26;14.45;;;9.38;;
20725;SDS011;10524;48.132;8.518;2022-10-31T08:17:52;11.65;;;6.40;;
20725;SDS011;10524;48.132;8.518;2022-10-31T08:20:18;6.72;;;4.00;;
20725;SDS011;10524;48.132;8.518;2022-10-31T08:22:52;4.47;;;3.00;;
20725;SDS011;10524;48.132;8.518;2022-10-31T08:25:22;6.40;;;3.50;;
20725;SDS011;10524;48.132;8.518;2022-10-31T08:27:51;7.97;;;4.20;;
20725;SDS011;10524;48.132;8.518;2022-10-31T08:30:22;10.30;;;5.40;;
20725;SDS011;10524;48.132;8.518;2022-10-31T08:32:57;15.13;;;10.50;;
20725;SDS011;10524;48.132;8.518;2022-10-31T08:35:34;9.77;;;6.00;;
20725;SDS011;10524;48.132;8.518;2022-10-31T08:38:00;13.38;;;5.82;;
20725;SDS011;10524;48.132;8.518;2022-10-31T08:40:27;5.78;;;3.53;;
20725;SDS011;10524;48.132;8.518;2022-10-31T08:43:02;4.82;;;3.03;;
20725;SDS011;10524;48.132;8.518;2022-10-31T08:45:29;11.82;;;3.92;;
20725;SDS011;10524;48.132;8.518;2022-10-31T08:47:57;11.82;;;4.55;;
20725;SDS011;10524;48.132;8.518;2022-10-31T08:50:23;8.73;;;3.83;;
20725;SDS011;10524;48.132;8.518;2022-10-31T08:52:49;5.25;;;3.30;;
20725;SDS011;10524;48.132;8.518;2022-10-31T08:55:15;4.45;;;3.20;;
20725;SDS011;10524;48.132;8.518;2022-10-31T08:57:41;8.35;;;3.67;;
20725;SDS011;10524;48.132;8.518;2022-10-31T09:00:06;5.05;;;3.25;;
20725;SDS011;10524;48.132;8.518;2022-10-31T09:02:33;7.85;;;3.60;;
20725;SDS011;10524;48.132;8.518;2022-10-31T09:04:58;6.60;;;3.90;;
20725;SDS011;10524;48.132;8.518;2022-10-31T09:07:24;9.27;;;4.15;;
20725;SDS011;10524;48.132;8.518;2022-10-31T09:09:50;17.33;;;4.72;;
20725;SDS011;10524;48.132;8.518;2022-10-31T09:12:15;12.02;;;3.40;;
20725;SDS011;10524;48.132;8.518;2022-10-31T09:14:41;11.90;;;4.70;;
20725;SDS011;10524;48.132;8.518;2022-10-31T09:17:07;10.30;;;4.63;;
20725;SDS011;10524;48.132;8.518;2022-10-31T09:19:32;6.95;;;4.50;;
20725;SDS011;10524;48.132;8.518;2022-10-31T09:21:58;8.50;;;4.07;;
20725;SDS011;10524;48.132;8.518;2022-10-31T09:24:23;7.28;;;4.35;;
20725;SDS011;10524;48.132;8.518;2022-10-31T09:26:49;4.53;;;3.40;;
20725;SDS011;10524;48.132;8.518;2022-10-31T09:29:15;9.32;;;3.60;;
20725;SDS011;10524;48.132;8.518;2022-10-31T09:31:40;7.57;;;3.45;;
20725;SDS011;10524;48.132;8.518;2022-10-31T09:34:06;5.43;;;3.22;;
20725;SDS011;10524;48.132;8.518;2022-10-31T09:36:31;5.13;;;2.88;;
20725;SDS011;10524;48.132;8.518;2022-10-31T09:38:57;7.68;;;3.13;;
20725;SDS011;10524;48.132;8.518;2022-10-31T09:43:58;5.95;;;3.17;;
20725;SDS011;10524;48.132;8.518;2022-10-31T09:50:02;6.97;;;3.00;;
20725;SDS011;10524;48.132;8.518;2022-10-31T09:52:38;6.50;;;2.65;;
20725;SDS011;10524;48.132;8.518;2022-10-31T09:55:21;4.25;;;2.85;;
20725;SDS011;10524;48.132;8.518;2022-10-31T09:58:05;4.75;;;2.08;;
20725;SDS011;10524;48.132;8.518;2022-10-31T10:00:39;4.30;;;2.17;;
20725;SDS011;10524;48.132;8.518;2022-10-31T10:05:46;5.38;;;2.50;;
20725;SDS011;10524;48.132;8.518;2022-10-31T10:10:45;6.85;;;2.53;;
20725;SDS011;10524;48.132;8.518;2022-10-31T10:18:58;5.78;;;2.42;;
20725;SDS011;10524;48.132;8.518;2022-10-31T10:21:53;5.88;;;2.53;;
20725;SDS011;10524;48.132;8.518;2022-10-31T10:27:40;6.90;;;2.22;;
20725;SDS011;10524;48.132;8.518;2022-10-31T10:40:49;6.20;;;2.70;;
20725;SDS011;10524;48.132;8.518;2022-10-31T10:49:18;6.68;;;2.60;;
20725;SDS011;10524;48.132;8.518;2022-10-31T10:54:54;6.35;;;2.60;;
20725;SDS011;10524;48.132;8.518;2022-10-31T11:00:38;6.25;;;2.55;;
20725;SDS011;10524;48.132;8.518;2022-10-31T11:03:07;6.70;;;2.67;;
20725;SDS011;10524;48.132;8.518;2022-10-31T11:05:44;4.82;;;2.40;;
20725;SDS011;10524;48.132;8.518;2022-10-31T11:13:23;6.00;;;2.65;;
20725;SDS011;10524;48.132;8.518;2022-10-31T11:15:56;5.20;;;2.75;;
20725;SDS011;10524;48.132;8.518;2022-10-31T11:18:29;4.82;;;2.20;;
20725;SDS011;10524;48.132;8.518;2022-10-31T11:20:57;5.18;;;2.47;;
20725;SDS011;10524;48.132;8.518;2022-10-31T11:23:26;6.43;;;2.63;;
20725;SDS011;10524;48.132;8.518;2022-10-31T11:25:59;6.90;;;2.30;;
20725;SDS011;10524;48.132;8.518;2022-10-31T11:28:32;3.78;;;2.10;;
20725;SDS011;10524;48.132;8.518;2022-10-31T11:31:00;7.50;;;2.10;;
20725;SDS011;10524;48.132;8.518;2022-10-31T11:36:03;4.05;;;2.40;;
20725;SDS011;10524;48.132;8.518;2022-10-31T11:38:45;8.32;;;2.30;;
20725;SDS011;10524;48.132;8.518;2022-10-31T11:41:12;8.95;;;3.20;;
20725;SDS011;10524;48.132;8.518;2022-10-31T11:43:58;5.03;;;2.80;;
20725;SDS011;10524;48.132;8.518;2022-10-31T11:49:00;8.18;;;2.50;;
20725;SDS011;10524;48.132;8.518;2022-10-31T11:51:27;7.65;;;3.08;;
20725;SDS011;10524;48.132;8.518;2022-10-31T11:53:57;4.75;;;2.75;;
20725;SDS011;10524;48.132;8.518;2022-10-31T11:56:24;7.78;;;3.13;;
20725;SDS011;10524;48.132;8.518;2022-10-31T11:58:56;6.25;;;2.97;;
20725;SDS011;10524;48.132;8.518;2022-10-31T12:01:29;6.75;;;3.25;;
20725;SDS011;10524;48.132;8.518;2022-10-31T12:04:06;6.75;;;2.97;;
20725;SDS011;10524;48.132;8.518;2022-10-31T12:06:37;6.72;;;2.53;;
20725;SDS011;10524;48.132;8.518;2022-10-31T12:09:15;6.10;;;2.60;;
20725;SDS011;10524;48.132;8.518;2022-10-31T12:25:53;8.63;;;4.15;;
20725;SDS011;10524;48.132;8.518;2022-10-31T12:28:35;9.02;;;4.10;;
20725;SDS011;10524;48.132;8.518;2022-10-31T12:37:15;10.00;;;4.20;;
20725;SDS011;10524;48.132;8.518;2022-10-31T12:51:02;5.82;;;2.97;;
20725;SDS011;10524;48.132;8.518;2022-10-31T13:04:58;7.57;;;3.03;;
20725;SDS011;10524;48.132;8.518;2022-10-31T13:07:40;8.50;;;3.10;;
20725;SDS011;10524;48.132;8.518;2022-10-31T13:12:50;7.90;;;3.28;;
20725;SDS011;10524;48.132;8.518;2022-10-31T13:15:22;6.45;;;3.20;;
20725;SDS011;10524;48.132;8.518;2022-10-31T13:20:32;6.60;;;3.20;;
20725;SDS011;10524;48.132;8.518;2022-10-31T13:23:09;6.65;;;2.80;;
20725;SDS011;10524;48.132;8.518;2022-10-31T13:25:56;7.70;;;2.67;;
20725;SDS011;10524;48.132;8.518;2022-10-31T13:30:54;4.35;;;2.42;;
20725;SDS011;10524;48.132;8.518;2022-10-31T13:33:25;4.47;;;2.50;;
20725;SDS011;10524;48.132;8.518;2022-10-31T13:38:32;10.60;;;3.15;;
20725;SDS011;10524;48.132;8.518;2022-10-31T13:46:40;6.65;;;2.90;;
20725;SDS011;10524;48.132;8.518;2022-10-31T13:54:37;8.32;;;3.20;;
20725;SDS011;10524;48.132;8.518;2022-10-31T13:57:47;5.97;;;2.47;;
20725;SDS011;10524;48.132;8.518;2022-10-31T14:02:45;6.20;;;3.17;;
20725;SDS011;10524;48.132;8.518;2022-10-31T14:05:34;6.45;;;3.20;;
20725;SDS011;10524;48.132;8.518;2022-10-31T14:08:02;6.13;;;3.00;;
20725;SDS011;10524;48.132;8.518;2022-10-31T14:10:36;7.93;;;2.88;;
20725;SDS011;10524;48.132;8.518;2022-10-31T14:13:15;8.55;;;3.20;;
20725;SDS011;10524;48.132;8.518;2022-10-31T14:15:57;7.55;;;3.20;;
20725;SDS011;10524;48.132;8.518;2022-10-31T14:18:32;6.68;;;2.70;;
20725;SDS011;10524;48.132;8.518;2022-10-31T14:21:01;6.53;;;3.03;;
20725;SDS011;10524;48.132;8.518;2022-10-31T14:23:39;6.72;;;2.63;;
20725;SDS011;10524;48.132;8.518;2022-10-31T14:26:16;9.48;;;3.28;;
20725;SDS011;10524;48.132;8.518;2022-10-31T14:28:50;7.60;;;3.53;;
20725;SDS011;10524;48.132;8.518;2022-10-31T14:34:00;7.75;;;3.60;;
20725;SDS011;10524;48.132;8.518;2022-10-31T14:36:51;11.33;;;4.00;;
20725;SDS011;10524;48.132;8.518;2022-10-31T14:39:25;9.05;;;4.03;;
20725;SDS011;10524;48.132;8.518;2022-10-31T14:53:10;7.68;;;3.35;;
20725;SDS011;10524;48.132;8.518;2022-10-31T14:55:42;6.78;;;2.80;;
20725;SDS011;10524;48.132;8.518;2022-10-31T14:58:12;9.65;;;3.38;;
20725;SDS011;10524;48.132;8.518;2022-10-31T15:00:44;5.45;;;2.80;;
20725;SDS011;10524;48.132;8.518;2022-10-31T15:05:52;6.33;;;2.87;;
20725;SDS011;10524;48.132;8.518;2022-10-31T15:11:18;5.32;;;2.67;;
20725;SDS011;10524;48.132;8.518;2022-10-31T15:13:48;5.75;;;2.20;;
20725;SDS011;10524;48.132;8.518;2022-10-31T15:16:19;5.07;;;2.20;;
20725;SDS011;10524;48.132;8.518;2022-10-31T15:19:00;10.13;;;2.75;;
20725;SDS011;10524;48.132;8.518;2022-10-31T15:21:29;7.13;;;2.92;;
20725;SDS011;10524;48.132;8.518;2022-10-31T15:23:56;10.25;;;3.33;;
20725;SDS011;10524;48.132;8.518;2022-10-31T15:26:24;7.97;;;3.20;;
20725;SDS011;10524;48.132;8.518;2022-10-31T15:29:03;7.63;;;3.45;;
20725;SDS011;10524;48.132;8.518;2022-10-31T15:31:30;8.38;;;3.20;;
20725;SDS011;10524;48.132;8.518;2022-10-31T15:34:11;5.97;;;3.58;;
20725;SDS011;10524;48.132;8.518;2022-10-31T15:36:47;7.65;;;4.35;;
20725;SDS011;10524;48.132;8.518;2022-10-31T15:39:15;9.77;;;3.92;;
20725;SDS011;10524;48.132;8.518;2022-10-31T15:42:02;5.82;;;3.53;;
20725;SDS011;10524;48.132;8.518;2022-10-31T15:44:31;11.25;;;3.92;;
20725;SDS011;10524;48.132;8.518;2022-10-31T15:47:21;10.18;;;3.60;;
20725;SDS011;10524;48.132;8.518;2022-10-31T15:49:48;12.32;;;3.70;;
20725;SDS011;10524;48.132;8.518;2022-10-31T15:54:56;8.68;;;3.80;;
20725;SDS011;10524;48.132;8.518;2022-10-31T15:57:31;10.27;;;4.70;;
20725;SDS011;10524;48.132;8.518;2022-10-31T15:59:58;8.48;;;4.22;;
20725;SDS011;10524;48.132;8.518;2022-10-31T16:02:25;9.93;;;5.45;;
20725;SDS011;10524;48.132;8.518;2022-10-31T16:04:53;10.85;;;6.55;;
20725;SDS011;10524;48.132;8.518;2022-10-31T16:07:19;10.85;;;6.40;;
20725;SDS011;10524;48.132;8.518;2022-10-31T16:09:56;11.38;;;5.97;;
20725;SDS011;10524;48.132;8.518;2022-10-31T16:12:22;13.10;;;7.07;;
20725;SDS011;10524;48.132;8.518;2022-10-31T16:14:50;11.10;;;6.88;;
20725;SDS011;10524;48.132;8.518;2022-10-31T16:17:19;14.00;;;7.18;;
20725;SDS011;10524;48.132;8.518;2022-10-31T16:19:52;12.25;;;5.80;;
20725;SDS011;10524;48.132;8.518;2022-10-31T16:22:26;13.82;;;6.93;;
20725;SDS011;10524;48.132;8.518;2022-10-31T16:24:57;10.00;;;5.53;;
20725;SDS011;10524;48.132;8.518;2022-10-31T16:27:34;12.20;;;5.28;;
20725;SDS011;10524;48.132;8.518;2022-10-31T16:30:02;9.90;;;5.55;;
20725;SDS011;10524;48.132;8.518;2022-10-31T16:32:53;13.20;;;6.88;;
20725;SDS011;10524;48.132;8.518;2022-10-31T16:35:25;12.00;;;7.30;;
20725;SDS011;10524;48.132;8.518;2022-10-31T16:38:01;15.57;;;7.38;;
20725;SDS011;10524;48.132;8.518;2022-10-31T16:40:27;12.32;;;7.68;;
20725;SDS011;10524;48.132;8.518;2022-10-31T16:42:55;17.70;;;8.65;;
20725;SDS011;10524;48.132;8.518;2022-10-31T16:45:24;16.25;;;8.68;;
20725;SDS011;10524;48.132;8.518;2022-10-31T16:47:54;18.95;;;11.98;;
20725;SDS011;10524;48.132;8.518;2022-10-31T16:50:30;15.38;;;11.48;;
20725;SDS011;10524;48.132;8.518;2022-10-31T16:52:56;21.35;;;13.23;;
20725;SDS011;10524;48.132;8.518;2022-10-31T16:55:22;27.75;;;19.42;;
20725;SDS011;10524;48.132;8.518;2022-10-31T16:57:57;25.58;;;17.95;;
20725;SDS011;10524;48.132;8.518;2022-10-31T17:00:24;27.35;;;16.85;;
20725;SDS011;10524;48.132;8.518;2022-10-31T17:02:51;21.25;;;13.30;;
20725;SDS011;10524;48.132;8.518;2022-10-31T17:05:19;15.85;;;11.52;;
20725;SDS011;10524;48.132;8.518;2022-10-31T17:07:46;22.60;;;15.27;;
20725;SDS011;10524;48.132;8.518;2022-10-31T17:10:13;22.20;;;13.15;;
20725;SDS011;10524;48.132;8.518;2022-10-31T17:12:43;15.52;;;10.82;;
20725;SDS011;10524;48.132;8.518;2022-10-31T17:15:20;16.20;;;11.32;;
20725;SDS011;10524;48.132;8.518;2022-10-31T17:17:50;12.07;;;7.90;;
20725;SDS011;10524;48.132;8.518;2022-10-31T17:22:47;13.57;;;8.93;;
20725;SDS011;10524;48.132;8.518;2022-10-31T17:25:15;16.10;;;7.75;;
20725;SDS011;10524;48.132;8.518;2022-10-31T17:27:41;18.63;;;9.07;;
20725;SDS011;10524;48.132;8.518;2022-10-31T17:30:08;24.80;;;18.58;;
20725;SDS011;10524;48.132;8.518;2022-10-31T17:32:37;23.00;;;18.15;;
20725;SDS011;10524;48.132;8.518;2022-10-31T17:35:02;19.23;;;13.98;;
20725;SDS011;10524;48.132;8.518;2022-10-31T17:37:28;17.60;;;12.20;;
20725;SDS011;10524;48.132;8.518;2022-10-31T17:39:54;17.55;;;13.77;;
20725;SDS011;10524;48.132;8.518;2022-10-31T17:42:19;25.83;;;16.60;;
20725;SDS011;10524;48.132;8.518;2022-10-31T17:44:45;26.13;;;17.38;;
20725;SDS011;10524;48.132;8.518;2022-10-31T17:47:12;19.67;;;13.88;;
20725;SDS011;10524;48.132;8.518;2022-10-31T17:49:38;18.33;;;10.95;;
20725;SDS011;10524;48.132;8.518;2022-10-31T17:52:03;12.40;;;9.18;;
20725;SDS011;10524;48.132;8.518;2022-10-31T17:54:29;13.27;;;8.95;;
20725;SDS011;10524;48.132;8.518;2022-10-31T17:56:55;14.32;;;9.63;;
20725;SDS011;10524;48.132;8.518;2022-10-31T17:59:21;21.95;;;12.43;;